Airfield :
LOGIN :

Register | Disclaimer

   EN    FR    IT 

 










Legend :    VFR   Marginal VFR   IFR   Intensive IFR   Very Intensive IFR
Visi :
Ceiling :
>= 8 km
>= 3000ft
5 to 8 km
1000 to 3000 ft
1500m to 5 km
500 to 1000 ft
800 to 1500m
200 to 500 ft
< 800m
< 200 ft
Symbols :   Thunderstorms  Fog  Heavy snow  Heavy precipitations  Wind > 20 kt
SIGMETs :     Misc.  Thunderstorms  Icing  Turbulence  Mountain Waves  Volcanic Ashes






- Airport Elevation : 13 ft
- IATA code : SNR


LFRZ - St-Nazaire

CURRENT METAR :
  • 261100Z AUTO 08006KT 7000 OVC006 01/00 Q1036 TEMPO BKN015

EXPIRED METARs :
  • 261030Z AUTO 08007KT 6000 OVC006 01/00 Q1036 TEMPO BKN015
  • 261000Z AUTO 06006KT 6000 OVC006 02/01 Q1036 NOSIG
  • 260930Z AUTO 06007KT 020V090 5000 BR OVC006 02/01 Q1036 NOSIG
  • 260900Z AUTO 05008KT 5000 BR OVC006 02/01 Q1035 TEMPO BKN004
  • 260830Z AUTO 03006KT 4800 BR OVC007 02/01 Q1035 TEMPO BKN004 BECMG 9999 NSW

TAF TAF LFRZ
Valid from the 26 at 06:00 until the 27 at 06:00 UTC


260500Z 2606/2706 03006KT 9999 BKN008
TEMPO 2606/2610 3000 BR BKN004
TEMPO 2612/2618 BKN015
BECMG 2618/2621 BKN002
BECMG 2622/2701 0500 FG VV///



MET'MAP, your aeronautical weather chart ! - Copyright ORBIFLY December 2007 - Disclaimer

ORBIFLY MET'MAP TEAM :

Programming & Development : Alexandra Zaïnal
Original concept : Baudouin d'Aumeries
Technical & hardware support : Manuel Goepfert
Assistance : Marc-Olivier Méhu

Contact : metmap@orbifly.com




SOURCES & CREDITS :

   NOAA